METAR AND TAF INFORMATION
METAR FOR SURV
ADDS - METARS form results

(0725 UTC 26 March 2019)
Data provider http://aviationweather.gov/metar/data/
 
Forecast for: SURV (RIVERA , UY)
Text: SURV 260500Z 2606/2706 19005KT 9999 FEW023 TX22/2618Z TN10/2609Z
Forecast period: 0600 UTC 26 March 2019 to 0600 UTC 27 March 2019
Forecast type: FROM: standard forecast or significant change
Winds: from the S (190 degrees) at 6 MPH (5 knots; 2.6 m/s)
Visibility: 6 or more miles 10+ km)
Ceiling: at least 12,000 feet AGL
Clouds: few clouds at 2300 feet AGL
Weather: no significant weather forecast for this period
Text: TEMPO 2606/2611 00000KT 3000 BR SCT008
Forecast period: 0600 to 1100 UTC 26 March 2019
Forecast type: TEMPORARY: The following changes expected for less than half the time period
Winds: calm
Visibility: 1.86 miles (2.99 km)
Ceiling: at least 12,000 feet AGL
Clouds: scattered clouds at 800 feet AGL
Weather: BR  (mist)

 AIRPORT MAP

 RUNWAY INFORMATION
Runway 05 Runway length 6004 ft Runway width 0 ft
Runway elevation 669 ft Runway displaced threshold 0 ft Runway heading 0
Runway 23 Runway length 6004 ft Runway width 0 ft
Runway elevation 719 ft Runway displaced threshold 0 ft Runway heading 0

 AIRPORT FREQUENCIES

 AIRPORT NEAR NAVIGATION AIDS
Type NDB Name Rivera Frequency 260 KHZ
Type NDB Name Rivera Frequency 305 KHZ



Powered by Virtual Airlines Manager [v2.6.2]